createdAt,value
2019-04-04T00:01:18.606Z,91.06
2019-04-04T00:03:47.183Z,90.99
2019-04-04T00:06:15.754Z,90.99
2019-04-04T00:08:44.351Z,91.11
2019-04-04T00:11:13.008Z,91.21
2019-04-04T00:13:42.067Z,91.21
2019-04-04T00:16:11.171Z,91.31
2019-04-04T00:18:39.778Z,91.54
2019-04-04T00:21:08.371Z,91.63
2019-04-04T00:23:38.053Z,91.68
2019-04-04T00:26:07.119Z,91.73
2019-04-04T00:28:35.697Z,91.79
2019-04-04T00:31:04.353Z,91.57
2019-04-04T00:33:33.022Z,91.63
2019-04-04T00:36:02.677Z,91.56
2019-04-04T00:38:31.878Z,91.63
2019-04-04T00:41:00.459Z,91.62
2019-04-04T00:43:29.051Z,91.52
2019-04-04T00:46:00.480Z,91.57
2019-04-04T00:48:27.952Z,91.55
2019-04-04T00:50:56.694Z,91.44
2019-04-04T00:53:25.319Z,91.34
2019-04-04T00:55:53.922Z,91.07
2019-04-04T00:58:22.574Z,91.13
2019-04-04T01:00:51.147Z,91.04
2019-04-04T01:03:19.720Z,91.04
2019-04-04T01:05:48.460Z,91.21
2019-04-04T01:08:17.194Z,91.14
2019-04-04T01:10:45.982Z,91.15
2019-04-04T01:13:14.592Z,91.34
2019-04-04T01:15:43.231Z,91.42
2019-04-04T01:18:11.831Z,91.46
2019-04-04T01:20:40.506Z,91.71
2019-04-04T01:23:09.078Z,91.63
2019-04-04T01:25:37.763Z,91.61
2019-04-04T01:28:08.169Z,91.66
2019-04-04T01:30:36.654Z,91.63
2019-04-04T01:33:05.269Z,91.91
2019-04-04T01:35:34.544Z,91.85
2019-04-04T01:38:03.268Z,91.96
2019-04-04T01:40:33.673Z,92.10
2019-04-04T01:43:02.594Z,92.37
2019-04-04T01:45:31.165Z,92.85
2019-04-04T01:47:59.739Z,92.74
2019-04-04T01:50:28.390Z,92.52
2019-04-04T01:52:59.286Z,92.26
2019-04-04T01:55:27.424Z,91.93
2019-04-04T01:57:55.997Z,92.02
2019-04-04T02:00:24.570Z,91.85
2019-04-04T02:02:53.335Z,91.74
2019-04-04T02:05:22.133Z,91.76
2019-04-04T02:07:50.840Z,91.60
2019-04-04T02:10:19.429Z,91.46
2019-04-04T02:12:48.001Z,91.40
2019-04-04T02:15:16.586Z,91.38
2019-04-04T02:17:45.155Z,91.46
2019-04-04T02:20:13.725Z,91.56
2019-04-04T02:22:42.301Z,91.55
2019-04-04T02:25:10.871Z,91.65
2019-04-04T02:27:39.473Z,91.59
2019-04-04T02:30:08.739Z,91.85
2019-04-04T02:32:37.293Z,92.01
2019-04-04T02:35:10.304Z,92.09
2019-04-04T02:37:37.576Z,92.17
2019-04-04T02:40:10.121Z,92.30
2019-04-04T02:42:39.214Z,92.41
2019-04-04T02:45:08.576Z,92.40
2019-04-04T02:47:37.169Z,92.50
2019-04-04T02:50:07.044Z,92.71
2019-04-04T02:52:35.638Z,93.02
2019-04-04T02:55:05.153Z,93.45
2019-04-04T02:57:33.765Z,93.73
2019-04-04T03:00:02.361Z,94.01
2019-04-04T03:02:30.935Z,94.25
2019-04-04T03:04:59.503Z,94.13
2019-04-04T03:07:30.994Z,94.03
2019-04-04T03:09:59.160Z,93.99
2019-04-04T03:12:27.752Z,93.89
2019-04-04T03:14:56.329Z,93.92
2019-04-04T03:17:24.911Z,93.94
2019-04-04T03:19:53.521Z,93.93
2019-04-04T03:22:24.630Z,93.77
2019-04-04T03:24:52.927Z,93.69
2019-04-04T03:27:25.813Z,93.68
2019-04-04T03:29:51.893Z,93.75
2019-04-04T03:32:20.571Z,94.02
2019-04-04T03:34:51.076Z,94.37
2019-04-04T03:37:19.509Z,94.72
2019-04-04T03:39:51.970Z,94.97
2019-04-04T03:42:18.449Z,95.49
2019-04-04T03:44:47.059Z,95.34
2019-04-04T03:47:15.639Z,95.47
2019-04-04T03:49:44.249Z,95.48
2019-04-04T03:52:12.855Z,95.30
2019-04-04T03:54:41.490Z,95.24
2019-04-04T03:57:12.174Z,95.14
2019-04-04T03:59:40.374Z,94.91
2019-04-04T04:02:08.956Z,95.06
2019-04-04T04:04:37.581Z,95.26
2019-04-04T04:07:06.130Z,95.25
2019-04-04T04:09:34.937Z,95.34
2019-04-04T04:12:03.597Z,95.80
2019-04-04T04:14:32.176Z,95.78
2019-04-04T04:17:00.747Z,95.63
2019-04-04T04:19:31.017Z,95.33
2019-04-04T04:21:59.629Z,94.99
2019-04-04T04:24:29.796Z,94.67
2019-04-04T04:26:58.543Z,94.97
2019-04-04T04:29:29.936Z,94.97
2019-04-04T04:31:58.039Z,95.10
2019-04-04T04:34:26.573Z,95.76
2019-04-04T04:36:55.152Z,95.90
2019-04-04T04:39:23.718Z,95.89
2019-04-04T04:41:54.240Z,95.90
2019-04-04T04:44:22.976Z,95.91
2019-04-04T04:46:51.599Z,95.89
2019-04-04T04:49:23.306Z,95.92
2019-04-04T04:51:50.710Z,96.18
2019-04-04T04:54:20.456Z,96.46
2019-04-04T04:56:49.666Z,96.36
2019-04-04T04:59:18.257Z,96.19
2019-04-04T05:01:50.242Z,96.07
2019-04-04T05:04:17.272Z,96.05
2019-04-04T05:06:45.728Z,96.23
2019-04-04T05:09:14.710Z,96.13
2019-04-04T05:11:43.385Z,96.10
2019-04-04T05:14:11.958Z,96.18
2019-04-04T05:16:40.542Z,96.33
2019-04-04T05:19:09.091Z,96.58
2019-04-04T05:21:37.686Z,96.82
2019-04-04T05:24:06.272Z,96.66
2019-04-04T05:26:35.537Z,96.59
2019-04-04T05:29:05.196Z,96.67
2019-04-04T05:31:33.932Z,96.57
2019-04-04T05:34:02.496Z,96.45
2019-04-04T05:36:31.293Z,96.41
2019-04-04T05:39:00.172Z,96.46
2019-04-04T05:41:28.981Z,96.35
2019-04-04T05:43:57.567Z,96.37
2019-04-04T05:46:26.471Z,96.30
2019-04-04T05:48:55.063Z,96.33
2019-04-04T05:51:23.651Z,96.21
2019-04-04T05:53:52.235Z,96.17
2019-04-04T05:56:23.930Z,96.15
2019-04-04T05:58:53.050Z,96.18
2019-04-04T06:01:22.820Z,96.21
2019-04-04T06:03:51.657Z,96.28
2019-04-04T06:06:20.218Z,96.27
2019-04-04T06:08:49.074Z,96.21
2019-04-04T06:11:20.892Z,96.21
2019-04-04T06:13:48.252Z,96.14
2019-04-04T06:16:16.828Z,96.05
2019-04-04T06:18:45.401Z,95.99
2019-04-04T06:21:13.997Z,95.99
2019-04-04T06:23:42.575Z,96.02
2019-04-04T06:26:11.153Z,95.98
2019-04-04T06:28:39.733Z,95.91
2019-04-04T06:31:08.301Z,95.92
2019-04-04T06:33:37.213Z,95.89
2019-04-04T06:36:05.783Z,95.88
2019-04-04T06:38:34.360Z,95.87
2019-04-04T06:41:03.060Z,95.76
2019-04-04T06:43:32.068Z,95.65
2019-04-04T06:46:00.649Z,95.64
2019-04-04T06:48:30.754Z,95.49
2019-04-04T06:50:59.533Z,95.55
2019-04-04T06:53:29.018Z,95.30
2019-04-04T06:55:59.977Z,95.07
2019-04-04T06:58:27.892Z,94.96
2019-04-04T07:00:56.468Z,94.88
2019-04-04T07:03:27.077Z,95.01
2019-04-04T07:05:55.357Z,95.12
2019-04-04T07:08:24.035Z,94.98
2019-04-04T07:10:58.084Z,94.95
2019-04-04T07:13:27.102Z,94.85
2019-04-04T07:16:06.293Z,94.73
2019-04-04T07:18:23.857Z,94.50
2019-04-04T07:20:52.446Z,94.38
2019-04-04T07:23:21.023Z,94.39
2019-04-04T07:25:49.637Z,94.49
2019-04-04T07:28:19.097Z,94.43
2019-04-04T07:30:48.212Z,94.39
2019-04-04T07:33:16.842Z,94.13
2019-04-04T07:35:46.910Z,93.93
2019-04-04T07:38:15.753Z,93.87
2019-04-04T07:40:44.324Z,93.88
2019-04-04T07:43:12.900Z,93.63
2019-04-04T07:45:41.471Z,93.45
2019-04-04T07:48:12.235Z,93.34
2019-04-04T07:50:40.653Z,93.22
2019-04-04T07:53:09.282Z,93.26
2019-04-04T07:55:38.061Z,93.13
2019-04-04T07:58:06.651Z,93.21
2019-04-04T08:00:35.228Z,93.19
2019-04-04T08:03:03.851Z,93.16
2019-04-04T08:05:32.461Z,92.73
2019-04-04T08:08:01.081Z,92.38
2019-04-04T08:10:29.750Z,92.40
2019-04-04T08:12:58.600Z,92.34
2019-04-04T08:15:27.172Z,92.16
2019-04-04T08:17:55.707Z,92.03
2019-04-04T08:20:24.299Z,91.91
2019-04-04T08:22:53.203Z,91.84
2019-04-04T08:25:21.974Z,91.73
2019-04-04T08:27:50.581Z,91.48
2019-04-04T08:30:19.221Z,91.44
2019-04-04T08:32:47.832Z,90.73
2019-04-04T08:35:16.499Z,90.28
2019-04-04T08:37:45.082Z,90.03
2019-04-04T08:40:13.956Z,89.90
2019-04-04T08:42:42.582Z,89.47
2019-04-04T08:45:11.356Z,89.87
2019-04-04T08:47:39.932Z,89.92
2019-04-04T08:50:08.655Z,89.52
2019-04-04T08:52:37.229Z,89.25
2019-04-04T08:55:07.210Z,89.47
2019-04-04T08:57:35.789Z,89.88
2019-04-04T09:00:06.741Z,90.04
2019-04-04T09:02:35.334Z,89.59
2019-04-04T09:05:12.267Z,89.60
2019-04-04T09:07:36.468Z,89.45
2019-04-04T09:10:06.958Z,89.50
2019-04-04T09:12:35.552Z,89.59
2019-04-04T09:15:06.121Z,89.22
2019-04-04T09:17:34.692Z,89.10
2019-04-04T09:20:04.969Z,89.35
2019-04-04T09:22:33.571Z,89.02
2019-04-04T09:25:02.146Z,89.12
2019-04-04T09:27:30.724Z,89.18
2019-04-04T09:29:59.385Z,89.10
2019-04-04T09:32:27.985Z,89.43
2019-04-04T09:34:56.602Z,89.52
2019-04-04T09:37:25.183Z,88.66
2019-04-04T09:39:54.025Z,89.21
2019-04-04T09:42:22.608Z,88.95
2019-04-04T09:44:51.348Z,88.95
2019-04-04T09:47:19.933Z,89.14
2019-04-04T09:49:48.499Z,88.81
2019-04-04T09:52:18.193Z,88.90
2019-04-04T09:54:46.761Z,89.20
2019-04-04T09:57:15.366Z,89.27
2019-04-04T09:59:43.963Z,89.35
2019-04-04T10:02:12.539Z,89.72
2019-04-04T10:04:41.191Z,89.79
2019-04-04T10:07:09.765Z,89.90
2019-04-04T10:09:38.341Z,90.20
2019-04-04T10:12:06.920Z,90.24
2019-04-04T10:14:35.494Z,89.69
2019-04-04T10:17:04.303Z,89.63
2019-04-04T10:19:32.886Z,89.87
2019-04-04T10:22:01.547Z,90.28
2019-04-04T10:24:30.130Z,90.13
2019-04-04T10:26:58.846Z,89.47
2019-04-04T10:29:27.431Z,89.57
2019-04-04T10:31:56.012Z,89.00
2019-04-04T10:34:24.580Z,88.94
2019-04-04T10:36:53.165Z,88.16
2019-04-04T10:39:28.638Z,87.96
2019-04-04T10:41:52.259Z,88.04
2019-04-04T10:44:20.881Z,87.73
2019-04-04T10:46:49.448Z,86.95
2019-04-04T10:49:18.071Z,87.07
2019-04-04T10:51:46.645Z,86.42
2019-04-04T10:54:15.222Z,86.21
2019-04-04T10:56:43.814Z,86.43
2019-04-04T10:59:12.388Z,85.98
2019-04-04T11:01:40.968Z,86.05
2019-04-04T11:04:09.576Z,86.46
2019-04-04T11:06:38.150Z,85.89
2019-04-04T11:09:07.861Z,85.91
2019-04-04T11:11:36.437Z,85.53
2019-04-04T11:14:05.115Z,85.77
2019-04-04T11:16:33.716Z,86.66
2019-04-04T11:19:02.284Z,86.86
2019-04-04T11:21:30.907Z,86.93
2019-04-04T11:23:59.647Z,86.33
2019-04-04T11:26:28.275Z,86.66
2019-04-04T11:28:56.848Z,86.53
2019-04-04T11:31:25.570Z,86.20
2019-04-04T11:33:54.154Z,86.52
2019-04-04T11:36:22.797Z,86.49
2019-04-04T11:38:51.497Z,86.42
2019-04-04T11:41:20.296Z,86.08
2019-04-04T11:43:48.860Z,85.88
2019-04-04T11:46:17.465Z,86.07
2019-04-04T11:48:46.068Z,86.45
2019-04-04T11:51:14.647Z,85.81
2019-04-04T11:53:43.216Z,86.87
2019-04-04T11:56:11.818Z,87.22
2019-04-04T11:58:40.409Z,87.32
2019-04-04T12:01:10.625Z,86.82
2019-04-04T12:03:39.265Z,87.12
2019-04-04T12:06:07.940Z,86.36
2019-04-04T12:08:36.507Z,86.77
2019-04-04T12:11:05.196Z,85.57
2019-04-04T12:13:33.771Z,86.05
2019-04-04T12:16:02.396Z,86.02
2019-04-04T12:18:30.966Z,85.94
2019-04-04T12:20:59.710Z,85.55
2019-04-04T12:23:28.215Z,85.19
2019-04-04T12:25:56.756Z,85.26
2019-04-04T12:28:25.331Z,85.55
2019-04-04T12:30:54.066Z,85.36
2019-04-04T12:33:22.812Z,85.43
2019-04-04T12:35:52.547Z,85.29
2019-04-04T12:38:21.262Z,85.08
2019-04-04T12:40:49.855Z,85.15
2019-04-04T12:43:18.419Z,84.90
2019-04-04T12:45:47.030Z,84.12
2019-04-04T12:48:15.750Z,84.37
2019-04-04T12:50:44.317Z,84.58
2019-04-04T12:53:12.884Z,84.91
2019-04-04T12:55:41.457Z,85.11
2019-04-04T12:58:10.997Z,85.11
2019-04-04T13:00:39.673Z,85.60
2019-04-04T13:03:08.272Z,85.30
2019-04-04T13:05:36.843Z,85.54
2019-04-04T13:08:05.488Z,85.39
2019-04-04T13:10:34.056Z,85.39
2019-04-04T13:13:02.624Z,85.57
2019-04-04T13:15:31.184Z,86.03
2019-04-04T13:17:59.926Z,85.72
2019-04-04T13:20:28.491Z,84.86
2019-04-04T13:22:57.055Z,83.72
2019-04-04T13:25:25.637Z,83.84
2019-04-04T13:27:54.204Z,82.60
2019-04-04T13:30:22.889Z,83.17
2019-04-04T13:32:51.451Z,83.48
2019-04-04T13:35:19.972Z,83.56
2019-04-04T13:37:48.679Z,83.78
2019-04-04T13:40:17.345Z,83.19
2019-04-04T13:42:45.981Z,83.10
2019-04-04T13:45:14.644Z,82.41
2019-04-04T13:47:43.224Z,83.17
2019-04-04T13:50:12.821Z,83.02
2019-04-04T13:52:41.639Z,82.86
2019-04-04T13:55:10.306Z,83.16
2019-04-04T13:57:39.509Z,83.81
2019-04-04T14:00:10.187Z,84.14
2019-04-04T14:02:38.810Z,84.32
2019-04-04T14:05:14.165Z,85.22
2019-04-04T14:07:43.778Z,84.76
2019-04-04T14:10:11.848Z,85.99
2019-04-04T14:12:40.707Z,85.33
2019-04-04T14:15:10.451Z,85.87
2019-04-04T14:17:39.198Z,86.21
2019-04-04T14:20:10.687Z,86.26
2019-04-04T14:22:39.251Z,85.87
2019-04-04T14:25:08.539Z,86.10
2019-04-04T14:27:37.410Z,86.14
2019-04-04T14:30:07.673Z,86.15
2019-04-04T14:32:36.639Z,85.82
2019-04-04T14:35:07.382Z,86.11
2019-04-04T14:37:35.949Z,85.13
2019-04-04T14:40:06.618Z,86.06
2019-04-04T14:42:35.220Z,85.68
2019-04-04T14:45:06.482Z,85.73
2019-04-04T14:47:35.381Z,85.96
2019-04-04T14:50:05.596Z,86.50
2019-04-04T14:52:34.233Z,87.02
2019-04-04T14:55:02.797Z,87.39
2019-04-04T14:57:31.458Z,87.54
2019-04-04T15:00:00.118Z,87.90
2019-04-04T15:02:28.709Z,87.10
2019-04-04T15:04:57.294Z,87.58
2019-04-04T15:07:25.863Z,87.13
2019-04-04T15:09:54.440Z,87.55
2019-04-04T15:12:22.944Z,86.83
2019-04-04T15:14:51.616Z,86.49
2019-04-04T15:17:20.541Z,87.12
2019-04-04T15:19:49.121Z,87.26
2019-04-04T15:22:17.695Z,87.00
2019-04-04T15:24:46.265Z,86.97
2019-04-04T15:27:14.943Z,86.92
2019-04-04T15:29:43.516Z,87.37
2019-04-04T15:32:12.302Z,87.38
2019-04-04T15:34:41.010Z,88.12
2019-04-04T15:37:09.593Z,88.44
2019-04-04T15:39:38.167Z,88.87
2019-04-04T15:42:06.831Z,89.06
2019-04-04T15:44:35.449Z,88.99
2019-04-04T15:47:04.211Z,88.73
2019-04-04T15:49:32.779Z,88.46
2019-04-04T15:52:01.450Z,88.72
2019-04-04T15:54:30.014Z,88.65
2019-04-04T15:56:58.581Z,88.36
2019-04-04T15:59:27.511Z,88.31
2019-04-04T16:01:56.097Z,87.77
2019-04-04T16:04:24.672Z,87.34
2019-04-04T16:06:53.259Z,87.38
2019-04-04T16:09:21.824Z,87.50
2019-04-04T16:11:50.411Z,87.24
2019-04-04T16:14:19.004Z,87.53
2019-04-04T16:16:47.662Z,87.56
2019-04-04T16:19:16.358Z,87.81
2019-04-04T16:21:44.931Z,86.72
2019-04-04T16:24:13.572Z,86.85
2019-04-04T16:26:42.135Z,86.63
2019-04-04T16:29:10.712Z,87.02
2019-04-04T16:31:39.285Z,86.75
2019-04-04T16:34:07.859Z,86.97
2019-04-04T16:36:36.430Z,87.06
2019-04-04T16:39:07.374Z,87.29
2019-04-04T16:41:35.948Z,87.20
2019-04-04T16:44:05.325Z,87.64
2019-04-04T16:46:33.906Z,88.21
2019-04-04T16:49:02.480Z,88.30
2019-04-04T16:51:31.055Z,88.74
2019-04-04T16:53:59.559Z,88.40
2019-04-04T16:56:28.144Z,88.58
2019-04-04T16:58:56.778Z,88.95
2019-04-04T17:01:25.350Z,88.91
2019-04-04T17:04:01.526Z,88.72
2019-04-04T17:06:24.622Z,89.03
2019-04-04T17:08:53.206Z,89.26
2019-04-04T17:11:21.775Z,89.17
2019-04-04T17:13:50.356Z,89.19
2019-04-04T17:16:21.236Z,88.99
2019-04-04T17:18:49.256Z,89.16
2019-04-04T17:21:17.889Z,89.00
2019-04-04T17:23:46.471Z,88.29
2019-04-04T17:26:15.029Z,88.39
2019-04-04T17:28:43.599Z,88.76
2019-04-04T17:31:12.479Z,88.47
2019-04-04T17:33:41.578Z,88.27
2019-04-04T17:36:10.146Z,88.87
2019-04-04T17:38:38.801Z,88.77
2019-04-04T17:41:08.113Z,88.49
2019-04-04T17:43:36.815Z,88.82
2019-04-04T17:46:05.476Z,88.65
2019-04-04T17:48:34.629Z,88.46
2019-04-04T17:51:03.288Z,88.40
2019-04-04T17:53:31.938Z,88.94
2019-04-04T17:56:00.849Z,89.33
2019-04-04T17:58:29.882Z,90.01
2019-04-04T18:00:58.732Z,89.83
2019-04-04T18:03:27.305Z,89.76
2019-04-04T18:05:55.916Z,90.20
2019-04-04T18:08:24.493Z,90.24
2019-04-04T18:10:53.138Z,90.86
2019-04-04T18:13:21.700Z,91.17
2019-04-04T18:15:50.320Z,91.12
2019-04-04T18:18:18.907Z,90.94
2019-04-04T18:20:47.688Z,90.91
2019-04-04T18:23:16.292Z,90.87
2019-04-04T18:25:44.875Z,91.00
2019-04-04T18:28:13.467Z,91.50
2019-04-04T18:30:42.247Z,92.02
2019-04-04T18:33:10.830Z,91.94
2019-04-04T18:35:39.490Z,92.08
2019-04-04T18:38:08.184Z,91.91
2019-04-04T18:40:36.779Z,91.98
2019-04-04T18:43:05.467Z,92.00
2019-04-04T18:45:34.652Z,92.42
2019-04-04T18:48:03.681Z,92.42
2019-04-04T18:50:32.411Z,92.44
2019-04-04T18:53:01.638Z,93.07
2019-04-04T18:55:30.366Z,93.17
2019-04-04T18:57:59.042Z,93.06
2019-04-04T19:00:27.623Z,93.11
2019-04-04T19:02:56.195Z,93.11
2019-04-04T19:05:24.842Z,93.37
2019-04-04T19:07:53.779Z,93.40
2019-04-04T19:10:22.900Z,93.12
2019-04-04T19:12:51.831Z,93.23
2019-04-04T19:15:20.559Z,93.33
2019-04-04T19:17:49.533Z,93.36
2019-04-04T19:20:18.276Z,93.42
2019-04-04T19:22:47.013Z,92.84
2019-04-04T19:25:15.787Z,93.18
2019-04-04T19:27:44.963Z,92.66
2019-04-04T19:30:15.208Z,93.06
2019-04-04T19:32:44.110Z,93.20
2019-04-04T19:35:13.248Z,93.17
2019-04-04T19:37:42.150Z,92.96
2019-04-04T19:40:11.466Z,93.17
2019-04-04T19:42:40.723Z,93.59
2019-04-04T19:45:09.985Z,93.14
2019-04-04T19:47:38.874Z,93.12
2019-04-04T19:50:10.565Z,93.01
2019-04-04T19:52:39.733Z,93.20
2019-04-04T19:55:09.539Z,93.36
2019-04-04T19:57:40.219Z,93.24
2019-04-04T20:00:11.336Z,93.63
2019-04-04T20:02:40.439Z,93.63
2019-04-04T20:05:10.202Z,93.44
2019-04-04T20:07:39.148Z,93.60
2019-04-04T20:10:09.316Z,93.49
2019-04-04T20:12:38.244Z,93.48
2019-04-04T20:15:08.443Z,93.44
2019-04-04T20:17:37.448Z,93.51
2019-04-04T20:20:09.662Z,93.84
2019-04-04T20:22:40.082Z,93.72
2019-04-04T20:25:09.140Z,93.63
2019-04-04T20:27:38.086Z,93.45
2019-04-04T20:30:14.022Z,93.41
2019-04-04T20:32:41.564Z,93.59
2019-04-04T20:35:10.502Z,93.41
2019-04-04T20:37:39.171Z,93.54
2019-04-04T20:40:08.302Z,93.43
2019-04-04T20:42:36.918Z,93.25
2019-04-04T20:45:06.331Z,93.24
2019-04-04T20:47:34.937Z,93.25
2019-04-04T20:50:04.959Z,93.30
2019-04-04T20:52:33.575Z,93.19
2019-04-04T20:55:02.366Z,93.50
2019-04-04T20:57:32.053Z,93.82
2019-04-04T21:00:00.623Z,93.61
2019-04-04T21:02:29.232Z,93.35
2019-04-04T21:04:57.810Z,93.28
2019-04-04T21:07:26.536Z,93.47
2019-04-04T21:09:55.307Z,93.34
2019-04-04T21:12:23.905Z,93.50
2019-04-04T21:14:52.549Z,93.70
2019-04-04T21:17:21.363Z,93.42
2019-04-04T21:19:49.939Z,93.45
2019-04-04T21:22:27.458Z,93.56
2019-04-04T21:24:49.419Z,93.38
2019-04-04T21:27:18.928Z,93.65
2019-04-04T21:29:47.747Z,93.75
2019-04-04T21:32:16.373Z,93.80
2019-04-04T21:34:44.957Z,93.95
2019-04-04T21:37:13.537Z,93.99
2019-04-04T21:39:42.481Z,93.92
2019-04-04T21:42:11.299Z,93.99
2019-04-04T21:44:39.900Z,94.05
2019-04-04T21:47:08.956Z,94.10
2019-04-04T21:49:37.649Z,94.23
2019-04-04T21:52:06.248Z,94.41
2019-04-04T21:54:34.824Z,94.53
2019-04-04T21:57:03.440Z,94.89
2019-04-04T21:59:32.013Z,94.62
2019-04-04T22:02:00.675Z,94.67
2019-04-04T22:04:29.334Z,94.59
2019-04-04T22:06:58.040Z,94.52
2019-04-04T22:09:26.718Z,94.80
2019-04-04T22:11:55.361Z,94.79
2019-04-04T22:14:23.934Z,95.23
2019-04-04T22:16:52.508Z,95.49
2019-04-04T22:19:21.148Z,95.18
2019-04-04T22:21:49.971Z,95.05
2019-04-04T22:24:18.577Z,95.16
2019-04-04T22:26:47.133Z,95.08
2019-04-04T22:29:15.904Z,94.86
2019-04-04T22:31:44.548Z,94.94
2019-04-04T22:34:13.221Z,95.56
2019-04-04T22:36:41.794Z,95.24
2019-04-04T22:39:10.635Z,95.04
2019-04-04T22:41:39.210Z,94.89
2019-04-04T22:44:07.790Z,94.89
2019-04-04T22:46:36.389Z,94.93
2019-04-04T22:49:05.164Z,94.98
2019-04-04T22:51:33.783Z,94.97
2019-04-04T22:54:02.360Z,94.99
2019-04-04T22:56:30.935Z,94.93
2019-04-04T22:58:59.635Z,94.82
2019-04-04T23:01:29.233Z,94.85
2019-04-04T23:03:57.900Z,94.91
2019-04-04T23:06:26.738Z,94.78
2019-04-04T23:08:55.332Z,94.86
2019-04-04T23:11:24.010Z,94.99
2019-04-04T23:13:52.658Z,95.03
2019-04-04T23:16:21.263Z,95.21
2019-04-04T23:18:50.233Z,95.47
2019-04-04T23:21:18.797Z,95.60
2019-04-04T23:23:47.494Z,95.55
2019-04-04T23:26:16.074Z,95.68
2019-04-04T23:28:44.758Z,95.63
2019-04-04T23:31:13.334Z,95.44
2019-04-04T23:33:41.864Z,95.34
2019-04-04T23:36:10.433Z,95.49
2019-04-04T23:38:39.025Z,95.96
2019-04-04T23:41:07.599Z,95.82
2019-04-04T23:43:36.126Z,95.93
2019-04-04T23:46:05.700Z,95.97
2019-04-04T23:48:34.466Z,96.33
2019-04-04T23:51:03.122Z,96.62
2019-04-04T23:53:32.117Z,96.49
2019-04-04T23:56:00.689Z,96.50
2019-04-04T23:58:29.264Z,96.16
